createdAt,value
2023-08-16T00:01:01.980Z,5.05
2023-08-16T00:03:31.776Z,6.88
2023-08-16T00:06:10.281Z,5.72
2023-08-16T00:08:40.018Z,6.53
2023-08-16T00:11:10.052Z,6.10
2023-08-16T00:13:40.375Z,5.15
2023-08-16T00:16:10.144Z,5.57
2023-08-16T00:18:39.889Z,5.53
2023-08-16T00:21:09.591Z,5.43
2023-08-16T00:23:39.273Z,6.18
2023-08-16T00:26:09.173Z,5.40
2023-08-16T00:28:39.101Z,5.30
2023-08-16T00:31:08.802Z,4.35
2023-08-16T00:33:38.619Z,6.05
2023-08-16T00:36:10.213Z,6.05
2023-08-16T00:38:45.235Z,4.65
2023-08-16T00:41:15.512Z,6.43
2023-08-16T00:43:45.171Z,6.13
2023-08-16T00:46:15.634Z,6.43
2023-08-16T00:48:45.778Z,6.30
2023-08-16T00:51:15.473Z,4.88
2023-08-16T00:53:45.388Z,6.03
2023-08-16T00:56:16.341Z,5.32
2023-08-16T00:58:46.541Z,7.95
2023-08-16T01:01:16.314Z,5.82
2023-08-16T01:03:46.151Z,6.35
2023-08-16T01:06:16.436Z,5.43
2023-08-16T01:08:46.170Z,5.50
2023-08-16T01:11:55.476Z,5.70
2023-08-16T01:14:59.225Z,4.10
2023-08-16T01:17:29.111Z,9.23
2023-08-16T01:20:00.081Z,7.78
2023-08-16T01:22:41.567Z,3.80
2023-08-16T01:25:14.767Z,5.35
2023-08-16T01:27:45.474Z,6.88
2023-08-16T01:30:15.329Z,4.85
2023-08-16T01:32:45.273Z,6.20
2023-08-16T01:35:14.956Z,6.03
2023-08-16T01:37:45.173Z,4.80
2023-08-16T01:40:15.031Z,5.88
2023-08-16T01:42:46.903Z,4.97
2023-08-16T01:45:16.977Z,7.57
2023-08-16T01:47:47.884Z,4.68
2023-08-16T01:50:17.720Z,6.32
2023-08-16T01:52:47.507Z,5.72
2023-08-16T01:55:17.484Z,5.72
2023-08-16T01:57:47.317Z,18.75
2023-08-16T02:00:18.194Z,5.07
2023-08-16T02:02:48.007Z,11.85
2023-08-16T02:05:17.815Z,5.93
2023-08-16T02:07:47.594Z,5.13
2023-08-16T02:10:17.368Z,5.07
2023-08-16T02:12:47.035Z,6.05
2023-08-16T02:15:17.000Z,4.18
2023-08-16T02:17:46.667Z,6.07
2023-08-16T02:20:16.358Z,8.30
2023-08-16T02:22:46.062Z,5.30
2023-08-16T02:25:15.804Z,5.22
2023-08-16T02:27:45.516Z,6.22
2023-08-16T02:30:21.247Z,5.95
2023-08-16T02:32:51.019Z,5.45
2023-08-16T02:35:20.761Z,6.05
2023-08-16T02:37:50.463Z,4.68
2023-08-16T02:40:20.230Z,5.88
2023-08-16T02:42:51.996Z,6.75
2023-08-16T02:45:21.721Z,7.93
2023-08-16T02:47:52.545Z,5.20
2023-08-16T02:50:23.532Z,6.00
2023-08-16T02:52:53.216Z,5.10
2023-08-16T02:55:22.991Z,4.88
2023-08-16T02:57:52.842Z,6.47
2023-08-16T03:00:22.624Z,6.32
2023-08-16T03:02:52.349Z,5.70
2023-08-16T03:05:22.241Z,4.60
2023-08-16T03:07:52.009Z,6.68
2023-08-16T03:10:21.770Z,6.10
2023-08-16T03:12:51.526Z,6.28
2023-08-16T03:15:21.216Z,6.97
2023-08-16T03:17:50.985Z,5.30
2023-08-16T03:20:20.811Z,6.60
2023-08-16T03:22:50.528Z,8.10
2023-08-16T03:25:20.504Z,5.97
2023-08-16T03:27:50.213Z,8.77
2023-08-16T03:30:19.941Z,7.65
2023-08-16T03:32:50.169Z,9.65
2023-08-16T03:35:19.972Z,5.13
2023-08-16T03:37:49.652Z,7.68
2023-08-16T03:40:36.491Z,6.30
2023-08-16T03:43:06.458Z,13.00
2023-08-16T03:48:31.298Z,7.03
2023-08-16T03:51:01.109Z,6.15
2023-08-16T03:53:33.949Z,5.72
2023-08-16T03:56:03.624Z,7.13
2023-08-16T03:58:33.338Z,7.38
2023-08-16T04:01:03.382Z,8.18
2023-08-16T04:03:33.243Z,7.45
2023-08-16T04:06:03.007Z,7.07
2023-08-16T04:08:32.710Z,8.55
2023-08-16T04:11:02.390Z,7.95
2023-08-16T04:13:35.098Z,9.10
2023-08-16T04:16:08.172Z,8.23
2023-08-16T04:18:41.907Z,6.38
2023-08-16T04:21:12.594Z,7.43
2023-08-16T04:23:42.300Z,7.13
2023-08-16T04:26:12.024Z,7.28
2023-08-16T04:28:42.008Z,7.97
2023-08-16T04:31:11.753Z,8.25
2023-08-16T04:33:41.427Z,7.70
2023-08-16T04:36:11.303Z,7.80
2023-08-16T04:38:41.010Z,8.52
2023-08-16T04:41:10.699Z,9.35
2023-08-16T04:43:40.386Z,8.35
2023-08-16T04:46:10.250Z,8.75
2023-08-16T04:48:39.943Z,8.90
2023-08-16T04:51:09.615Z,9.00
2023-08-16T04:53:39.289Z,9.85
2023-08-16T04:56:09.042Z,8.95
2023-08-16T04:58:38.816Z,8.63
2023-08-16T05:01:08.577Z,8.55
2023-08-16T05:03:38.341Z,8.20
2023-08-16T05:06:08.241Z,8.65
2023-08-16T05:08:37.906Z,9.57
2023-08-16T05:11:07.664Z,9.05
2023-08-16T05:13:37.469Z,9.43
2023-08-16T05:16:12.835Z,13.27
2023-08-16T05:18:42.634Z,8.13
2023-08-16T05:21:21.031Z,9.45
2023-08-16T05:23:54.052Z,9.30
2023-08-16T05:26:26.751Z,10.10
2023-08-16T05:28:56.546Z,9.80
2023-08-16T05:31:44.434Z,10.35
2023-08-16T05:34:16.815Z,10.05
2023-08-16T05:36:56.404Z,9.63
2023-08-16T05:39:32.336Z,8.98
2023-08-16T05:42:04.726Z,9.43
2023-08-16T05:44:40.538Z,10.57
2023-08-16T05:47:10.290Z,8.90
2023-08-16T05:49:39.984Z,9.38
2023-08-16T05:52:09.687Z,8.60
2023-08-16T05:54:39.670Z,9.55
2023-08-16T05:57:09.378Z,8.93
2023-08-16T05:59:39.233Z,9.80
2023-08-16T06:02:11.801Z,10.93
2023-08-16T06:04:41.501Z,10.00
2023-08-16T06:07:11.184Z,10.00
2023-08-16T06:09:41.240Z,10.73
2023-08-16T06:12:10.939Z,9.85
2023-08-16T06:14:40.624Z,9.18
2023-08-16T06:17:10.352Z,11.27
2023-08-16T06:19:42.557Z,10.65
2023-08-16T06:22:12.237Z,9.73
2023-08-16T06:24:41.949Z,13.00
2023-08-16T06:27:11.717Z,9.40
2023-08-16T06:29:41.391Z,9.20
2023-08-16T06:32:11.123Z,9.95
2023-08-16T06:34:40.976Z,11.73
2023-08-16T06:37:10.716Z,10.20
2023-08-16T06:39:40.994Z,14.35
2023-08-16T06:42:10.792Z,11.48
2023-08-16T06:44:40.450Z,11.82
2023-08-16T06:47:10.306Z,10.30
2023-08-16T06:49:39.992Z,10.48
2023-08-16T06:52:09.815Z,11.45
2023-08-16T06:54:39.567Z,11.05
2023-08-16T06:57:09.274Z,11.73
2023-08-16T06:59:39.777Z,11.13
2023-08-16T07:02:10.922Z,10.77
2023-08-16T07:04:44.721Z,11.40
2023-08-16T07:07:15.273Z,10.88
2023-08-16T07:09:44.920Z,10.52
2023-08-16T07:12:14.597Z,10.25
2023-08-16T07:14:44.294Z,11.13
2023-08-16T07:17:14.079Z,13.15
2023-08-16T07:19:45.366Z,11.55
2023-08-16T07:22:15.081Z,11.10
2023-08-16T07:24:47.627Z,10.73
2023-08-16T07:27:17.345Z,11.13
2023-08-16T07:29:47.132Z,10.98
2023-08-16T07:32:16.807Z,12.57
2023-08-16T07:34:46.785Z,11.23
2023-08-16T07:37:16.533Z,11.85
2023-08-16T07:39:47.098Z,11.07
2023-08-16T07:42:16.807Z,11.30
2023-08-16T07:44:46.527Z,11.65
2023-08-16T07:47:17.418Z,11.45
2023-08-16T07:49:47.086Z,12.02
2023-08-16T07:52:16.752Z,14.02
2023-08-16T07:54:46.864Z,10.50
2023-08-16T07:57:17.494Z,13.95
2023-08-16T07:59:47.202Z,12.70
2023-08-16T08:02:16.853Z,13.05
2023-08-16T08:04:47.683Z,15.02
2023-08-16T08:07:17.598Z,14.88
2023-08-16T08:09:47.242Z,13.45
2023-08-16T08:12:17.210Z,15.02
2023-08-16T08:14:46.915Z,14.68
2023-08-16T08:17:16.610Z,12.85
2023-08-16T08:19:46.298Z,12.75
2023-08-16T08:22:16.185Z,13.00
2023-08-16T08:24:45.932Z,15.88
2023-08-16T08:27:15.626Z,17.17
2023-08-16T08:29:45.345Z,15.50
2023-08-16T08:32:15.050Z,15.20
2023-08-16T08:34:45.216Z,13.25
2023-08-16T08:37:14.872Z,15.00
2023-08-16T08:39:44.686Z,14.18
2023-08-16T08:42:14.471Z,13.15
2023-08-16T08:44:44.607Z,16.20
2023-08-16T08:47:17.307Z,13.45
2023-08-16T08:49:47.329Z,13.30
2023-08-16T08:52:17.025Z,15.23
2023-08-16T08:54:49.611Z,14.63
2023-08-16T08:57:19.356Z,15.18
2023-08-16T08:59:51.942Z,14.48
2023-08-16T09:02:22.323Z,13.45
2023-08-16T09:04:53.618Z,15.45
2023-08-16T09:07:23.446Z,14.25
2023-08-16T09:09:53.137Z,15.95
2023-08-16T09:12:23.179Z,15.52
2023-08-16T09:14:53.059Z,14.35
2023-08-16T09:17:22.893Z,13.32
2023-08-16T09:19:53.450Z,14.35
2023-08-16T09:22:23.699Z,14.32
2023-08-16T09:24:58.193Z,14.35
2023-08-16T09:27:29.084Z,16.83
2023-08-16T09:29:58.774Z,14.25
2023-08-16T09:32:33.361Z,13.70
2023-08-16T09:35:03.953Z,13.15
2023-08-16T09:37:34.550Z,13.38
2023-08-16T09:40:06.995Z,12.25
2023-08-16T09:42:37.084Z,14.20
2023-08-16T09:45:07.072Z,12.52
2023-08-16T09:47:59.717Z,14.40
2023-08-16T09:50:31.956Z,13.52
2023-08-16T09:53:18.084Z,12.07
2023-08-16T09:55:52.203Z,14.68
2023-08-16T09:58:21.844Z,13.93
2023-08-16T10:00:51.787Z,13.63
2023-08-16T10:03:21.480Z,12.15
2023-08-16T10:05:51.402Z,13.60
2023-08-16T10:08:21.519Z,12.07
2023-08-16T10:10:51.207Z,12.50
2023-08-16T10:13:20.989Z,13.05
2023-08-16T10:15:50.712Z,11.55
2023-08-16T10:18:20.449Z,11.82
2023-08-16T10:20:50.478Z,11.43
2023-08-16T10:23:22.437Z,11.65
2023-08-16T10:25:52.548Z,12.85
2023-08-16T10:28:23.072Z,12.85
2023-08-16T10:33:36.130Z,11.70
2023-08-16T10:36:06.204Z,12.02
2023-08-16T10:38:40.095Z,11.98
2023-08-16T10:41:16.819Z,12.77
2023-08-16T10:43:51.074Z,14.25
2023-08-16T10:46:34.667Z,11.07
2023-08-16T10:49:05.695Z,12.30
2023-08-16T10:51:46.381Z,12.73
2023-08-16T10:54:16.227Z,12.07
2023-08-16T10:56:51.737Z,11.48
2023-08-16T10:59:21.640Z,12.38
2023-08-16T11:01:53.388Z,11.07
2023-08-16T11:04:23.160Z,12.77
2023-08-16T11:07:02.211Z,13.00
2023-08-16T11:09:33.125Z,11.30
2023-08-16T11:12:06.123Z,11.52
2023-08-16T11:14:37.518Z,11.35
2023-08-16T11:17:07.432Z,12.35
2023-08-16T11:19:37.308Z,11.85
2023-08-16T11:22:08.718Z,13.35
2023-08-16T11:24:39.534Z,11.43
2023-08-16T11:27:09.532Z,11.70
2023-08-16T11:29:40.327Z,11.25
2023-08-16T11:32:10.109Z,12.00
2023-08-16T11:34:39.808Z,11.25
2023-08-16T11:37:09.639Z,12.18
2023-08-16T11:39:39.408Z,14.20
2023-08-16T11:42:09.169Z,11.40
2023-08-16T11:44:42.646Z,11.25
2023-08-16T11:47:15.325Z,11.55
2023-08-16T11:49:45.112Z,11.02
2023-08-16T11:52:15.326Z,12.32
2023-08-16T11:54:45.035Z,11.52
2023-08-16T11:57:22.468Z,11.15
2023-08-16T11:59:58.708Z,12.23
2023-08-16T12:02:28.617Z,10.82
2023-08-16T12:04:58.440Z,11.30
2023-08-16T12:07:29.232Z,11.23
2023-08-16T12:10:00.684Z,11.15
2023-08-16T12:12:36.517Z,12.27
2023-08-16T12:15:06.725Z,11.75
2023-08-16T12:17:36.339Z,11.98
2023-08-16T12:20:07.697Z,11.20
2023-08-16T12:22:38.274Z,10.82
2023-08-16T12:25:08.428Z,11.88
2023-08-16T12:27:38.188Z,12.13
2023-08-16T12:30:09.931Z,11.13
2023-08-16T12:32:39.706Z,11.20
2023-08-16T12:35:09.741Z,10.75
2023-08-16T12:40:15.136Z,10.35
2023-08-16T12:42:44.816Z,10.63
2023-08-16T12:45:14.505Z,11.90
2023-08-16T12:47:44.201Z,10.50
2023-08-16T12:50:13.895Z,10.73
2023-08-16T12:52:43.611Z,11.38
2023-08-16T12:55:13.380Z,10.68
2023-08-16T12:57:43.354Z,11.00
2023-08-16T13:08:04.093Z,11.93
2023-08-16T13:10:38.345Z,11.38
2023-08-16T13:13:31.814Z,11.55
2023-08-16T13:21:18.894Z,12.50
2023-08-16T13:24:05.262Z,12.27
2023-08-16T13:29:31.132Z,10.98
2023-08-16T13:32:06.724Z,12.43
2023-08-16T13:39:43.133Z,12.15
2023-08-16T13:47:19.372Z,10.98
2023-08-16T13:49:49.216Z,12.60
2023-08-16T13:52:18.972Z,11.55
2023-08-16T13:54:48.635Z,11.38
2023-08-16T13:57:18.341Z,10.45
2023-08-16T13:59:48.140Z,11.23
2023-08-16T14:02:17.971Z,11.80
2023-08-16T14:04:47.632Z,10.90
2023-08-16T14:07:17.346Z,11.00
2023-08-16T14:09:47.073Z,11.52
2023-08-16T14:12:16.869Z,11.07
2023-08-16T14:14:46.625Z,11.65
2023-08-16T14:17:16.543Z,10.63
2023-08-16T14:19:46.310Z,11.98
2023-08-16T14:22:15.981Z,10.80
2023-08-16T14:24:45.611Z,11.00
2023-08-16T14:27:15.366Z,13.13
2023-08-16T14:29:45.065Z,12.00
2023-08-16T14:32:14.794Z,11.98
2023-08-16T14:34:44.523Z,10.52
2023-08-16T14:37:14.308Z,12.95
2023-08-16T14:39:45.105Z,10.57
2023-08-16T14:42:14.974Z,10.90
2023-08-16T14:44:44.687Z,10.30
2023-08-16T14:47:14.398Z,10.43
2023-08-16T14:49:45.553Z,10.60
2023-08-16T14:52:15.254Z,11.73
2023-08-16T14:54:45.418Z,11.45
2023-08-16T14:57:15.116Z,12.75
2023-08-16T14:59:44.851Z,11.32
2023-08-16T15:02:15.799Z,11.27
2023-08-16T15:04:45.505Z,10.50
2023-08-16T15:07:16.541Z,11.40
2023-08-16T15:09:46.236Z,12.45
2023-08-16T15:12:15.890Z,11.77
2023-08-16T15:14:45.573Z,10.57
2023-08-16T15:17:15.247Z,12.20
2023-08-16T15:19:45.013Z,10.35
2023-08-16T15:22:14.713Z,11.88
2023-08-16T15:24:44.474Z,11.48
2023-08-16T15:27:15.100Z,10.77
2023-08-16T15:29:44.747Z,10.05
2023-08-16T15:32:17.538Z,11.65
2023-08-16T15:34:47.862Z,10.88
2023-08-16T15:37:17.626Z,11.55
2023-08-16T15:39:47.895Z,10.63
2023-08-16T15:42:17.586Z,11.35
2023-08-16T15:44:47.301Z,10.85
2023-08-16T15:47:17.051Z,10.88
2023-08-16T15:49:46.794Z,11.18
2023-08-16T15:52:16.754Z,11.30
2023-08-16T15:54:46.411Z,12.32
2023-08-16T15:57:16.060Z,10.80
2023-08-16T15:59:48.563Z,11.52
2023-08-16T16:02:18.833Z,11.77
2023-08-16T16:04:50.325Z,11.25
2023-08-16T16:07:20.083Z,11.35
2023-08-16T16:09:49.807Z,11.45
2023-08-16T16:12:19.997Z,12.82
2023-08-16T16:14:49.669Z,10.82
2023-08-16T16:17:24.494Z,10.98
2023-08-16T16:19:54.646Z,11.77
2023-08-16T16:22:24.337Z,10.27
2023-08-16T16:24:54.115Z,12.88
2023-08-16T16:27:24.256Z,10.60
2023-08-16T16:29:54.411Z,11.20
2023-08-16T16:32:24.452Z,10.43
2023-08-16T16:34:54.356Z,11.85
2023-08-16T16:37:26.861Z,11.35
2023-08-16T16:39:56.539Z,11.02
2023-08-16T16:42:26.501Z,11.43
2023-08-16T16:44:56.382Z,10.57
2023-08-16T16:47:26.349Z,12.70
2023-08-16T16:49:56.333Z,11.93
2023-08-16T16:52:26.078Z,10.77
2023-08-16T16:54:55.790Z,11.02
2023-08-16T16:57:28.519Z,11.45
2023-08-16T17:00:00.328Z,11.15
2023-08-16T17:02:30.077Z,10.68
2023-08-16T17:04:59.821Z,11.23
2023-08-16T17:07:29.721Z,12.27
2023-08-16T17:10:00.062Z,11.32
2023-08-16T17:12:29.895Z,11.05
2023-08-16T17:15:01.642Z,12.32
2023-08-16T17:17:31.384Z,11.63
2023-08-16T17:20:01.107Z,10.80
2023-08-16T17:22:35.096Z,10.63
2023-08-16T17:25:05.321Z,10.52
2023-08-16T17:27:35.004Z,11.52
2023-08-16T17:30:04.989Z,11.48
2023-08-16T17:32:34.818Z,12.38
2023-08-16T17:35:04.518Z,10.57
2023-08-16T17:37:34.213Z,12.10
2023-08-16T17:40:04.117Z,11.55
2023-08-16T17:42:33.787Z,11.57
2023-08-16T17:45:03.428Z,11.27
2023-08-16T17:47:34.034Z,11.80
2023-08-16T17:50:07.166Z,10.60
2023-08-16T17:52:36.839Z,12.98
2023-08-16T17:55:06.737Z,11.70
2023-08-16T17:57:36.535Z,12.13
2023-08-16T18:00:07.285Z,11.13
2023-08-16T18:02:37.072Z,13.57
2023-08-16T18:05:07.084Z,12.15
2023-08-16T18:07:36.879Z,11.55
2023-08-16T18:10:06.848Z,11.07
2023-08-16T18:12:36.799Z,12.30
2023-08-16T18:15:09.367Z,11.43
2023-08-16T18:17:39.143Z,12.38
2023-08-16T18:20:11.336Z,12.50
2023-08-16T18:22:41.076Z,11.57
2023-08-16T18:25:10.963Z,12.13
2023-08-16T18:27:41.367Z,13.30
2023-08-16T18:30:11.414Z,11.55
2023-08-16T18:32:41.113Z,12.10
2023-08-16T18:35:11.253Z,13.52
2023-08-16T18:37:40.963Z,12.55
2023-08-16T18:40:12.187Z,13.65
2023-08-16T18:42:42.256Z,12.80
2023-08-16T18:45:12.172Z,11.07
2023-08-16T18:47:41.961Z,13.07
2023-08-16T18:50:11.978Z,11.75
2023-08-16T18:52:41.724Z,13.85
2023-08-16T18:55:11.765Z,12.50
2023-08-16T18:57:41.458Z,11.05
2023-08-16T19:00:12.821Z,11.48
2023-08-16T19:02:42.630Z,11.57
2023-08-16T19:05:12.386Z,11.50
2023-08-16T19:07:42.647Z,12.63
2023-08-16T19:10:12.490Z,11.35
2023-08-16T19:12:42.235Z,12.00
2023-08-16T19:15:12.270Z,12.50
2023-08-16T19:17:42.255Z,11.90
2023-08-16T19:20:12.311Z,11.48
2023-08-16T19:22:41.996Z,13.32
2023-08-16T19:25:11.939Z,11.85
2023-08-16T19:27:42.396Z,11.57
2023-08-16T19:30:12.462Z,13.85
2023-08-16T19:32:42.190Z,11.25
2023-08-16T19:35:13.314Z,11.55
2023-08-16T19:37:44.490Z,10.80
2023-08-16T19:40:14.655Z,12.77
2023-08-16T19:42:45.419Z,11.77
2023-08-16T19:45:15.102Z,10.68
2023-08-16T19:47:47.545Z,12.18
2023-08-16T19:50:21.835Z,13.60
2023-08-16T19:52:52.431Z,12.17
2023-08-16T19:55:22.322Z,12.55
2023-08-16T19:57:52.845Z,11.10
2023-08-16T20:00:23.079Z,12.77
2023-08-16T20:02:52.795Z,16.65
2023-08-16T20:05:22.604Z,13.40
2023-08-16T20:07:52.309Z,11.82
2023-08-16T20:10:22.062Z,12.50
2023-08-16T20:12:51.723Z,11.73
2023-08-16T20:15:21.590Z,11.55
2023-08-16T20:17:51.270Z,13.73
2023-08-16T20:20:21.072Z,13.23
2023-08-16T20:22:50.976Z,11.80
2023-08-16T20:25:20.794Z,12.27
2023-08-16T20:27:50.489Z,11.85
2023-08-16T20:30:20.211Z,12.95
2023-08-16T20:32:49.883Z,12.15
2023-08-16T20:35:22.808Z,12.35
2023-08-16T20:37:52.510Z,11.05
2023-08-16T20:40:22.220Z,13.93
2023-08-16T20:42:51.993Z,13.52
2023-08-16T20:45:21.832Z,12.65
2023-08-16T20:47:51.572Z,11.70
2023-08-16T20:50:22.684Z,12.48
2023-08-16T20:52:52.381Z,12.07
2023-08-16T20:55:22.315Z,12.80
2023-08-16T20:57:52.007Z,12.38
2023-08-16T21:00:21.696Z,11.88
2023-08-16T21:02:51.451Z,13.20
2023-08-16T21:05:21.313Z,12.18
2023-08-16T21:07:51.066Z,11.57
2023-08-16T21:10:20.772Z,11.82
2023-08-16T21:12:50.417Z,13.32
2023-08-16T21:15:21.268Z,12.20
2023-08-16T21:17:51.024Z,12.50
2023-08-16T21:20:23.548Z,13.15
2023-08-16T21:22:55.138Z,11.93
2023-08-16T21:25:24.841Z,12.45
2023-08-16T21:27:54.544Z,11.88
2023-08-16T21:30:24.334Z,11.10
2023-08-16T21:32:54.096Z,12.07
2023-08-16T21:35:24.924Z,12.60
2023-08-16T21:37:54.898Z,12.07
2023-08-16T21:40:24.637Z,11.82
2023-08-16T21:42:54.292Z,12.85
2023-08-16T21:45:24.019Z,12.45
2023-08-16T21:47:53.818Z,12.13
2023-08-16T21:50:23.563Z,12.05
2023-08-16T21:52:54.112Z,12.98
2023-08-16T21:55:23.764Z,11.82
2023-08-16T21:57:53.426Z,11.20
2023-08-16T22:00:23.328Z,11.23
2023-08-16T22:02:53.055Z,13.00
2023-08-16T22:05:22.708Z,12.82
2023-08-16T22:07:52.423Z,12.13
2023-08-16T22:10:22.201Z,13.27
2023-08-16T22:12:51.896Z,13.85
2023-08-16T22:15:21.645Z,12.43
2023-08-16T22:17:51.392Z,14.05
2023-08-16T22:20:21.220Z,13.55
2023-08-16T22:22:50.915Z,13.95
2023-08-16T22:25:20.636Z,12.05
2023-08-16T22:27:50.818Z,13.80
2023-08-16T22:30:20.466Z,12.88
2023-08-16T22:32:52.531Z,12.45
2023-08-16T22:35:22.209Z,11.77
2023-08-16T22:37:51.893Z,12.40
2023-08-16T22:40:21.663Z,11.60
2023-08-16T22:42:51.349Z,11.32
2023-08-16T22:45:21.074Z,12.20
2023-08-16T22:47:50.810Z,10.38
2023-08-16T22:50:22.262Z,11.98
2023-08-16T22:52:52.296Z,13.60
2023-08-16T22:55:22.079Z,13.93
2023-08-16T22:57:54.728Z,12.77
2023-08-16T23:00:24.567Z,12.63
2023-08-16T23:02:54.252Z,12.30
2023-08-16T23:05:24.905Z,11.30
2023-08-16T23:07:58.055Z,14.00
2023-08-16T23:10:27.758Z,14.40
2023-08-16T23:12:57.467Z,14.15
2023-08-16T23:15:27.664Z,12.30
2023-08-16T23:17:57.578Z,13.32
2023-08-16T23:20:27.367Z,12.50
2023-08-16T23:22:57.017Z,13.63
2023-08-16T23:25:26.704Z,11.07
2023-08-16T23:27:56.763Z,13.13
2023-08-16T23:30:26.502Z,13.75
2023-08-16T23:32:56.254Z,15.07
2023-08-16T23:35:28.522Z,15.25
2023-08-16T23:37:58.310Z,16.85
2023-08-16T23:40:41.945Z,15.00
2023-08-16T23:43:11.651Z,15.05
2023-08-16T23:45:51.642Z,16.27
2023-08-16T23:48:21.387Z,15.30
2023-08-16T23:50:51.304Z,16.08
2023-08-16T23:53:20.951Z,15.82
2023-08-16T23:55:54.570Z,15.15
2023-08-16T23:58:24.272Z,14.00
